Time;durP1;ratioP1;P1;durP2;ratioP2;P2;SDS_P1;SDS_P2;PMS_P1;PMS_P2;Temp;Humidity;BMP_temperature;BMP_pressure;BME280_temperature;BME280_humidity;BME280_pressure;Samples;Min_cycle;Max_cycle;Signal;HPM_P1;HPM_P2
2022/08/03 00:01:34;;;;;;;1.50;0.40;;;;;;;;;;5039061;28;92012;-54
2022/08/03 00:04:03;;;;;;;1.23;0.50;;;;;;;;;;5039675;28;91275;-54
2022/08/03 00:06:31;;;;;;;2.10;0.73;;;;;;;;;;5036728;28;94496;-53
2022/08/03 00:09:04;;;;;;;2.00;0.70;;;;;;;;;;5038197;28;93392;-54
2022/08/03 00:11:34;;;;;;;0.80;0.40;;;;;;;;;;5037888;28;92991;-53
2022/08/03 00:14:02;;;;;;;1.00;0.87;;;;;;;;;;5038147;28;92152;-52
2022/08/03 00:16:30;;;;;;;1.13;0.50;;;;;;;;;;5032020;28;93409;-54
2022/08/03 00:18:59;;;;;;;1.60;0.50;;;;;;;;;;5010333;28;92967;-53
2022/08/03 00:21:28;;;;;;;1.10;0.70;;;;;;;;;;5019391;28;92042;-53
2022/08/03 00:23:56;;;;;;;2.03;0.40;;;;;;;;;;5019247;28;92140;-53
2022/08/03 00:26:24;;;;;;;1.73;0.83;;;;;;;;;;5018753;28;94433;-53
2022/08/03 00:28:54;;;;;;;1.03;0.53;;;;;;;;;;5018966;28;93934;-53
2022/08/03 00:31:22;;;;;;;1.30;0.60;;;;;;;;;;5019083;28;92063;-53
2022/08/03 00:34:10;;;;;;;0.77;0.37;;;;;;;;;;5017626;28;92142;-52
2022/08/03 00:36:39;;;;;;;2.10;0.80;;;;;;;;;;5008516;28;94970;-53
2022/08/03 00:39:08;;;;;;;1.13;0.40;;;;;;;;;;5007956;28;93745;-53
2022/08/03 00:41:36;;;;;;;0.30;0.30;;;;;;;;;;5009907;28;93888;-53
2022/08/03 00:44:06;;;;;;;0.67;0.40;;;;;;;;;;5007771;28;93924;-53
2022/08/03 00:46:34;;;;;;;2.77;0.90;;;;;;;;;;4996428;28;94270;-52
2022/08/03 00:49:02;;;;;;;0.93;0.40;;;;;;;;;;5004792;28;92899;-52
2022/08/03 00:51:31;;;;;;;0.40;0.40;;;;;;;;;;5019003;28;92034;-52
2022/08/03 00:53:59;;;;;;;2.23;0.93;;;;;;;;;;5019117;28;92027;-52
2022/08/03 00:56:27;;;;;;;0.20;0.20;;;;;;;;;;5018002;28;94253;-53
2022/08/03 00:58:55;;;;;;;2.37;1.10;;;;;;;;;;4998754;28;94010;-52
2022/08/03 01:01:25;;;;;;;0.60;0.40;;;;;;;;;;5009474;28;92970;-52
2022/08/03 01:03:59;;;;;;;2.97;0.50;;;;;;;;;;5009892;28;92212;-52
2022/08/03 01:06:29;;;;;;;1.17;0.70;;;;;;;;;;5016607;28;94199;-52
2022/08/03 01:08:59;;;;;;;2.20;0.53;;;;;;;;;;5018528;28;93895;-52
2022/08/03 01:11:29;;;;;;;0.90;0.40;;;;;;;;;;5013380;28;92161;-52
2022/08/03 01:13:58;;;;;;;2.30;0.70;;;;;;;;;;5016357;28;92104;-52
2022/08/03 01:16:48;;;;;;;4.63;0.60;;;;;;;;;;5016528;28;93903;-52
2022/08/03 01:19:22;;;;;;;1.03;0.40;;;;;;;;;;5025407;28;93864;-52
2022/08/03 01:21:53;;;;;;;0.30;0.30;;;;;;;;;;5035237;28;92066;-53
2022/08/03 01:24:23;;;;;;;5.17;0.83;;;;;;;;;;5039145;27;92055;-54
2022/08/03 01:26:58;;;;;;;1.00;0.60;;;;;;;;;;5038334;28;95190;-52
2022/08/03 01:29:38;;;;;;;1.57;0.30;;;;;;;;;;5038502;28;93771;-54
2022/08/03 01:32:09;;;;;;;0.83;0.60;;;;;;;;;;5039239;28;92222;-52
2022/08/03 01:34:59;;;;;;;0.70;0.50;;;;;;;;;;5038689;28;92101;-52
2022/08/03 01:37:32;;;;;;;1.60;0.60;;;;;;;;;;5038186;28;93118;-52
2022/08/03 01:40:06;;;;;;;0.53;0.40;;;;;;;;;;5035782;28;93775;-52
2022/08/03 01:42:34;;;;;;;0.40;0.40;;;;;;;;;;5028131;28;92004;-54
2022/08/03 01:45:04;;;;;;;0.43;0.33;;;;;;;;;;5033952;28;91350;-52
2022/08/03 01:47:32;;;;;;;2.20;0.67;;;;;;;;;;5035898;28;94216;-52
2022/08/03 01:50:01;;;;;;;0.30;0.30;;;;;;;;;;5031440;28;93890;-52
2022/08/03 01:52:29;;;;;;;0.87;0.60;;;;;;;;;;5022787;28;92928;-52
2022/08/03 01:54:57;;;;;;;1.47;0.50;;;;;;;;;;5035327;28;92077;-52
2022/08/03 01:57:26;;;;;;;0.83;0.40;;;;;;;;;;5029900;28;93170;-52
2022/08/03 01:59:54;;;;;;;0.50;0.47;;;;;;;;;;5035014;28;93807;-52
2022/08/03 02:02:24;;;;;;;0.40;0.40;;;;;;;;;;5034994;27;92205;-54
2022/08/03 02:05:01;;;;;;;0.40;0.40;;;;;;;;;;5037341;28;92468;-52
2022/08/03 02:07:29;;;;;;;0.50;0.50;;;;;;;;;;5032956;28;93097;-52
2022/08/03 02:09:58;;;;;;;1.37;0.40;;;;;;;;;;5033893;28;92804;-52
2022/08/03 02:12:26;;;;;;;0.60;0.30;;;;;;;;;;5033943;28;92081;-52
2022/08/03 02:14:55;;;;;;;0.67;0.40;;;;;;;;;;5033737;28;92052;-52
2022/08/03 02:17:24;;;;;;;2.47;0.60;;;;;;;;;;5030388;27;95225;-52
2022/08/03 02:20:07;;;;;;;0.30;0.30;;;;;;;;;;5035788;28;93697;-52
2022/08/03 02:22:35;;;;;;;0.93;0.63;;;;;;;;;;5041998;28;92437;-52
2022/08/03 02:25:03;;;;;;;3.27;0.77;;;;;;;;;;5059691;27;91972;-52
2022/08/03 02:27:32;;;;;;;0.83;0.70;;;;;;;;;;5041579;27;94142;-54
2022/08/03 02:30:01;;;;;;;0.70;0.50;;;;;;;;;;5040733;28;94118;-52
2022/08/03 02:32:32;;;;;;;1.13;0.60;;;;;;;;;;5041058;28;92152;-52
2022/08/03 02:35:00;;;;;;;1.17;0.60;;;;;;;;;;5041282;28;91347;-52
2022/08/03 02:37:29;;;;;;;2.23;0.77;;;;;;;;;;5040469;28;94174;-52
2022/08/03 02:39:58;;;;;;;1.20;0.60;;;;;;;;;;5034275;28;92854;-54
2022/08/03 02:42:27;;;;;;;2.40;0.60;;;;;;;;;;5040473;28;93044;-53
2022/08/03 02:44:56;;;;;;;1.43;0.80;;;;;;;;;;5040234;28;92082;-52
2022/08/03 02:47:24;;;;;;;2.83;0.80;;;;;;;;;;5019536;27;94165;-52
2022/08/03 02:49:53;;;;;;;1.23;0.60;;;;;;;;;;5026990;28;93103;-52
2022/08/03 02:52:22;;;;;;;1.47;1.00;;;;;;;;;;5038487;28;92068;-52
2022/08/03 02:54:51;;;;;;;2.43;1.30;;;;;;;;;;5038443;28;92155;-53
2022/08/03 02:57:20;;;;;;;1.07;0.93;;;;;;;;;;5037004;28;94348;-53
2022/08/03 02:59:48;;;;;;;1.40;0.93;;;;;;;;;;5038361;28;93780;-53
2022/08/03 03:02:16;;;;;;;1.07;0.97;;;;;;;;;;5022188;28;92139;-53
2022/08/03 03:04:45;;;;;;;0.80;0.63;;;;;;;;;;5030489;28;92569;-54
2022/08/03 03:07:35;;;;;;;1.37;1.10;;;;;;;;;;5032478;27;93805;-53
2022/08/03 03:10:19;;;;;;;2.73;1.10;;;;;;;;;;5017793;28;95462;-54
2022/08/03 03:12:48;;;;;;;1.17;1.00;;;;;;;;;;5018937;28;94028;-54
2022/08/03 03:15:16;;;;;;;1.57;1.10;;;;;;;;;;5019475;27;93762;-54
2022/08/03 03:17:44;;;;;;;1.43;0.90;;;;;;;;;;5019113;28;94238;-54
2022/08/03 03:20:12;;;;;;;2.87;1.07;;;;;;;;;;5027188;28;94072;-54
2022/08/03 03:22:42;;;;;;;1.50;1.17;;;;;;;;;;5021859;28;94069;-54
2022/08/03 03:25:12;;;;;;;4.00;1.47;;;;;;;;;;5014637;28;93241;-54
2022/08/03 03:27:40;;;;;;;2.33;1.27;;;;;;;;;;5016886;28;94223;-52
2022/08/03 03:30:16;;;;;;;3.90;1.40;;;;;;;;;;5020747;28;92934;-54
2022/08/03 03:32:44;;;;;;;2.43;1.30;;;;;;;;;;5040187;28;92981;-52
2022/08/03 03:35:13;;;;;;;3.90;2.00;;;;;;;;;;5039288;28;92024;-52
2022/08/03 03:37:42;;;;;;;2.47;1.53;;;;;;;;;;5040168;28;93124;-52
2022/08/03 03:40:11;;;;;;;3.97;1.90;;;;;;;;;;5010915;28;93345;-52
2022/08/03 03:42:40;;;;;;;1.50;1.40;;;;;;;;;;5032026;28;92010;-52
2022/08/03 03:45:08;;;;;;;2.00;1.50;;;;;;;;;;5031733;28;92165;-51
2022/08/03 03:47:37;;;;;;;2.00;1.47;;;;;;;;;;5039563;27;93322;-52
2022/08/03 03:50:05;;;;;;;1.80;1.57;;;;;;;;;;5035840;28;92764;-52
2022/08/03 03:52:34;;;;;;;2.07;1.63;;;;;;;;;;5020002;28;92183;-53
2022/08/03 03:55:04;;;;;;;2.93;1.73;;;;;;;;;;5019276;28;92722;-53
2022/08/03 03:57:32;;;;;;;1.97;1.70;;;;;;;;;;5019033;28;97915;-54
2022/08/03 04:00:00;;;;;;;1.60;1.47;;;;;;;;;;5019572;28;94998;-54
2022/08/03 04:02:28;;;;;;;2.37;1.47;;;;;;;;;;5000044;28;91914;-54
2022/08/03 04:13:20;;;;;;;2.80;2.00;;;;;;;;;;5024300;28;92060;-54
2022/08/03 04:15:48;;;;;;;1.40;1.30;;;;;;;;;;5019086;28;91331;-52
2022/08/03 04:18:16;;;;;;;4.50;1.60;;;;;;;;;;5034289;28;94235;-53
2022/08/03 04:20:45;;;;;;;1.67;1.57;;;;;;;;;;5036467;28;92958;-54
2022/08/03 04:23:14;;;;;;;4.57;1.70;;;;;;;;;;5038543;28;93078;-55
2022/08/03 04:25:44;;;;;;;2.60;1.90;;;;;;;;;;5026412;28;92147;-54
2022/08/03 04:28:12;;;;;;;3.33;1.40;;;;;;;;;;5038810;28;94202;-54
2022/08/03 04:30:58;;;;;;;3.07;1.73;;;;;;;;;;5038872;28;92679;-54
2022/08/03 04:33:27;;;;;;;1.93;1.40;;;;;;;;;;5038216;28;92096;-54
2022/08/03 04:35:58;;;;;;;2.33;1.60;;;;;;;;;;5039181;28;92239;-54
2022/08/03 04:38:30;;;;;;;2.17;1.67;;;;;;;;;;5039116;28;94350;-54
2022/08/03 04:41:00;;;;;;;3.20;1.40;;;;;;;;;;5037908;27;92954;-53
2022/08/03 04:43:29;;;;;;;2.90;1.50;;;;;;;;;;5038935;28;92130;-54
2022/08/03 04:45:57;;;;;;;2.13;1.63;;;;;;;;;;5038403;28;92072;-54
2022/08/03 04:48:25;;;;;;;3.60;1.43;;;;;;;;;;5038225;28;95144;-54
2022/08/03 04:50:53;;;;;;;2.17;1.47;;;;;;;;;;5038836;28;93757;-52
2022/08/03 04:53:22;;;;;;;1.63;1.47;;;;;;;;;;5039079;28;92117;-53
2022/08/03 04:55:50;;;;;;;2.30;1.57;;;;;;;;;;5038384;28;92107;-54
2022/08/03 04:58:20;;;;;;;2.77;1.37;;;;;;;;;;5038742;28;94263;-54
2022/08/03 05:00:50;;;;;;;1.73;1.40;;;;;;;;;;5038783;28;92059;-52
2022/08/03 05:03:18;;;;;;;6.37;1.70;;;;;;;;;;5039671;28;91886;-52
2022/08/03 05:05:52;;;;;;;6.30;1.60;;;;;;;;;;5039667;28;91242;-53
2022/08/03 05:08:29;;;;;;;2.97;1.80;;;;;;;;;;5031631;28;93489;-52
2022/08/03 05:10:58;;;;;;;1.73;1.27;;;;;;;;;;5037972;28;93896;-52
2022/08/03 05:13:28;;;;;;;1.30;1.20;;;;;;;;;;5038588;28;92871;-52
2022/08/03 05:15:56;;;;;;;2.73;1.67;;;;;;;;;;5038188;28;92222;-52
2022/08/03 05:18:25;;;;;;;2.03;1.33;;;;;;;;;;5038353;28;93270;-52
2022/08/03 05:20:53;;;;;;;1.37;1.13;;;;;;;;;;5037913;28;93937;-52
2022/08/03 05:23:21;;;;;;;1.37;1.20;;;;;;;;;;5039265;28;92003;-52
2022/08/03 05:25:49;;;;;;;2.27;1.50;;;;;;;;;;5032083;28;92523;-52
2022/08/03 05:28:18;;;;;;;2.17;1.40;;;;;;;;;;5038215;28;94156;-52
2022/08/03 05:30:47;;;;;;;2.07;1.27;;;;;;;;;;5037355;28;91706;-53
2022/08/03 05:33:16;;;;;;;1.30;1.20;;;;;;;;;;5038440;28;92106;-52
2022/08/03 05:35:44;;;;;;;1.93;1.30;;;;;;;;;;5037435;28;92084;-52
2022/08/03 05:38:30;;;;;;;2.43;1.23;;;;;;;;;;5034206;28;94103;-52
2022/08/03 05:41:02;;;;;;;1.23;1.13;;;;;;;;;;5035677;28;94815;-52
2022/08/03 05:43:51;;;;;;;2.57;1.27;;;;;;;;;;5037449;28;92016;-52
2022/08/03 05:46:20;;;;;;;2.00;1.43;;;;;;;;;;5038748;28;92049;-52
2022/08/03 05:48:48;;;;;;;2.07;1.13;;;;;;;;;;5036586;28;94301;-52
2022/08/03 05:51:17;;;;;;;1.30;0.90;;;;;;;;;;5037245;28;92810;-55
2022/08/03 05:53:45;;;;;;;2.47;0.93;;;;;;;;;;5042102;27;91996;-52
2022/08/03 05:56:13;;;;;;;1.20;1.00;;;;;;;;;;5042168;27;91190;-53
2022/08/03 05:58:44;;;;;;;1.20;1.10;;;;;;;;;;5042217;27;94358;-52
2022/08/03 06:01:12;;;;;;;2.83;0.90;;;;;;;;;;5032863;28;92644;-52
2022/08/03 06:03:42;;;;;;;2.20;1.20;;;;;;;;;;5040752;28;92949;-52
2022/08/03 06:06:10;;;;;;;1.30;0.70;;;;;;;;;;5041473;28;91920;-52
2022/08/03 06:08:39;;;;;;;1.40;0.90;;;;;;;;;;5042201;28;94134;-53
2022/08/03 06:11:07;;;;;;;3.00;1.47;;;;;;;;;;5032730;28;93978;-53
2022/08/03 06:13:36;;;;;;;1.50;0.80;;;;;;;;;;5041805;28;92061;-53
2022/08/03 06:16:04;;;;;;;0.87;0.60;;;;;;;;;;5026288;28;92137;-53
2022/08/03 06:18:32;;;;;;;0.70;0.70;;;;;;;;;;5041890;28;94270;-53
2022/08/03 06:21:02;;;;;;;0.70;0.70;;;;;;;;;;5040020;28;93849;-53
2022/08/03 06:23:43;;;;;;;1.10;0.67;;;;;;;;;;5042013;28;91992;-52
2022/08/03 06:26:22;;;;;;;1.03;0.67;;;;;;;;;;5041123;28;92169;-53
2022/08/03 06:28:51;;;;;;;1.43;0.90;;;;;;;;;;5041178;28;95439;-54
2022/08/03 06:31:22;;;;;;;1.77;0.80;;;;;;;;;;5023078;28;94784;-55
2022/08/03 06:33:51;;;;;;;7.17;2.30;;;;;;;;;;5038241;27;92507;-54
2022/08/03 06:36:40;;;;;;;9.73;2.13;;;;;;;;;;5030876;28;92054;-53
2022/08/03 06:39:09;;;;;;;6.47;2.13;;;;;;;;;;5020829;28;93159;-52
2022/08/03 06:41:37;;;;;;;5.17;2.47;;;;;;;;;;5021089;28;93931;-53
2022/08/03 06:44:12;;;;;;;9.53;2.13;;;;;;;;;;5020930;28;92044;-53
2022/08/03 06:46:41;;;;;;;6.57;1.47;;;;;;;;;;5020422;28;91246;-52
2022/08/03 06:49:09;;;;;;;5.23;1.87;;;;;;;;;;5031043;28;94358;-52
2022/08/03 06:51:37;;;;;;;5.07;1.70;;;;;;;;;;5041396;28;93793;-52
2022/08/03 06:54:27;;;;;;;11.03;1.87;;;;;;;;;;5001111;28;92949;-52
2022/08/03 06:57:00;;;;;;;5.53;1.43;;;;;;;;;;5000731;28;92051;-52
2022/08/03 06:59:28;;;;;;;2.67;1.10;;;;;;;;;;5000657;28;94160;-52
2022/08/03 07:02:17;;;;;;;3.93;1.70;;;;;;;;;;5000874;28;92433;-54
2022/08/03 07:04:46;;;;;;;5.57;1.10;;;;;;;;;;5010577;28;91960;-52
2022/08/03 07:07:15;;;;;;;2.20;0.83;;;;;;;;;;5040206;27;92495;-54
2022/08/03 07:09:44;;;;;;;6.57;1.47;;;;;;;;;;5039632;27;94150;-54
2022/08/03 07:12:26;;;;;;;3.20;1.13;;;;;;;;;;5041557;28;92736;-52
2022/08/03 07:14:54;;;;;;;7.23;1.57;;;;;;;;;;5040048;27;92062;-54
2022/08/03 07:17:27;;;;;;;2.57;1.03;;;;;;;;;;5040129;28;92019;-52
2022/08/03 07:19:56;;;;;;;5.13;1.63;;;;;;;;;;5039804;28;95350;-52
2022/08/03 07:22:24;;;;;;;2.97;1.20;;;;;;;;;;5040661;28;94810;-52
2022/08/03 07:24:54;;;;;;;4.97;1.30;;;;;;;;;;5040569;28;92088;-52
2022/08/03 07:27:22;;;;;;;6.60;1.27;;;;;;;;;;5040567;28;92042;-52
2022/08/03 07:29:50;;;;;;;4.07;1.20;;;;;;;;;;5041058;28;93128;-53
2022/08/03 07:32:18;;;;;;;3.53;1.20;;;;;;;;;;5040452;28;93817;-53
2022/08/03 07:34:47;;;;;;;6.20;1.10;;;;;;;;;;5041002;28;91910;-53
2022/08/03 07:37:15;;;;;;;4.13;1.50;;;;;;;;;;5041142;28;91354;-53
2022/08/03 07:39:44;;;;;;;1.77;1.20;;;;;;;;;;5040557;28;93161;-53
2022/08/03 07:42:13;;;;;;;4.10;1.23;;;;;;;;;;5040339;28;94324;-53
2022/08/03 07:44:42;;;;;;;3.33;1.63;;;;;;;;;;5040894;28;92896;-54
2022/08/03 07:47:10;;;;;;;4.77;1.37;;;;;;;;;;5040481;28;91978;-53
2022/08/03 07:49:49;;;;;;;2.57;1.33;;;;;;;;;;5040146;28;94165;-55
2022/08/03 07:55:05;;;;;;;3.37;1.00;;;;;;;;;;5040464;28;92017;-53
2022/08/03 07:57:34;;;;;;;1.30;0.90;;;;;;;;;;5039910;28;92115;-53
2022/08/03 08:00:03;;;;;;;3.50;1.20;;;;;;;;;;5040427;28;93330;-53
2022/08/03 08:02:31;;;;;;;1.53;1.10;;;;;;;;;;5040351;28;94118;-52
2022/08/03 08:04:59;;;;;;;2.10;1.00;;;;;;;;;;5039854;28;92094;-52
2022/08/03 08:07:32;;;;;;;3.23;1.37;;;;;;;;;;5040037;28;92067;-52
2022/08/03 08:10:01;;;;;;;2.80;1.03;;;;;;;;;;5039329;28;95074;-52
2022/08/03 08:12:29;;;;;;;2.17;0.80;;;;;;;;;;5039842;28;95120;-52
2022/08/03 08:14:59;;;;;;;1.33;0.80;;;;;;;;;;5038779;27;91897;-52
2022/08/03 08:17:27;;;;;;;3.37;1.50;;;;;;;;;;5052186;27;91930;-52
2022/08/03 08:19:55;;;;;;;1.20;1.10;;;;;;;;;;5060231;27;92023;-52
2022/08/03 08:22:25;;;;;;;1.37;1.13;;;;;;;;;;5060029;27;93309;-53
2022/08/03 08:24:58;;;;;;;3.53;1.20;;;;;;;;;;5060160;27;92086;-52
2022/08/03 08:27:29;;;;;;;1.77;1.07;;;;;;;;;;5060772;27;91339;-53
2022/08/03 08:30:19;;;;;;;0.97;0.97;;;;;;;;;;5059647;27;95527;-53
2022/08/03 08:32:47;;;;;;;1.73;1.13;;;;;;;;;;5059582;27;92775;-53
2022/08/03 08:35:16;;;;;;;3.47;1.00;;;;;;;;;;5059861;27;93021;-52
2022/08/03 08:37:44;;;;;;;2.60;1.30;;;;;;;;;;5060012;27;92111;-53
2022/08/03 08:40:18;;;;;;;4.90;1.30;;;;;;;;;;5059670;27;93209;-53
2022/08/03 08:42:46;;;;;;;1.37;1.00;;;;;;;;;;5059801;27;92757;-53
2022/08/03 08:45:27;;;;;;;1.30;1.20;;;;;;;;;;5052529;27;92075;-53
2022/08/03 08:47:55;;;;;;;6.80;1.23;;;;;;;;;;5059779;27;92082;-53
2022/08/03 08:50:29;;;;;;;2.37;1.37;;;;;;;;;;5059503;27;94240;-52
2022/08/03 08:52:58;;;;;;;5.13;1.60;;;;;;;;;;5059731;27;93939;-52
2022/08/03 08:55:26;;;;;;;1.90;1.10;;;;;;;;;;5058631;27;91973;-52
2022/08/03 08:57:56;;;;;;;4.43;0.90;;;;;;;;;;5059780;27;92219;-52
2022/08/03 09:00:25;;;;;;;1.70;1.00;;;;;;;;;;5058882;27;95220;-52
2022/08/03 09:02:54;;;;;;;1.73;1.20;;;;;;;;;;5059163;27;93673;-52
2022/08/03 09:05:23;;;;;;;3.33;1.03;;;;;;;;;;5059657;27;92053;-54
2022/08/03 09:08:11;;;;;;;2.90;0.87;;;;;;;;;;5058871;27;92103;-53
2022/08/03 09:10:39;;;;;;;2.37;1.30;;;;;;;;;;5059123;27;93342;-53
2022/08/03 09:13:08;;;;;;;1.57;1.47;;;;;;;;;;5059325;27;93967;-53
2022/08/03 09:15:37;;;;;;;2.17;1.20;;;;;;;;;;5059692;27;92118;-53
2022/08/03 09:18:08;;;;;;;2.97;1.27;;;;;;;;;;5059909;27;91328;-53
2022/08/03 09:20:36;;;;;;;2.77;1.00;;;;;;;;;;5059344;27;93394;-53
2022/08/03 09:23:07;;;;;;;0.80;0.70;;;;;;;;;;5059371;27;93969;-53
2022/08/03 09:25:58;;;;;;;3.80;1.43;;;;;;;;;;5058615;27;92839;-54
2022/08/03 09:28:27;;;;;;;1.40;1.27;;;;;;;;;;5059291;27;92096;-53
2022/08/03 09:31:15;;;;;;;1.60;1.00;;;;;;;;;;5058678;27;92671;-54
2022/08/03 09:33:48;;;;;;;1.67;0.97;;;;;;;;;;5059525;27;93903;-54
2022/08/03 09:36:36;;;;;;;4.00;1.30;;;;;;;;;;5059595;27;91831;-53
2022/08/03 09:39:05;;;;;;;1.67;1.10;;;;;;;;;;5059143;27;92079;-53
2022/08/03 09:41:33;;;;;;;2.13;0.80;;;;;;;;;;5059224;27;92934;-53
2022/08/03 09:44:01;;;;;;;0.93;0.93;;;;;;;;;;5059535;27;93968;-53
2022/08/03 09:46:32;;;;;;;1.03;0.90;;;;;;;;;;5059215;27;91888;-53
2022/08/03 09:49:11;;;;;;;0.83;0.80;;;;;;;;;;5059030;27;92113;-53
2022/08/03 09:51:39;;;;;;;1.67;1.20;;;;;;;;;;5058405;27;94958;-54
2022/08/03 09:54:28;;;;;;;2.87;1.60;;;;;;;;;;5059207;27;96141;-54
2022/08/03 09:56:56;;;;;;;1.93;1.00;;;;;;;;;;5059074;27;91948;-53
2022/08/03 09:59:25;;;;;;;1.70;0.97;;;;;;;;;;5045678;27;92904;-53
2022/08/03 10:01:54;;;;;;;1.43;1.03;;;;;;;;;;5048253;27;93978;-53
2022/08/03 10:04:23;;;;;;;1.57;1.30;;;;;;;;;;5040570;27;93832;-53
2022/08/03 10:07:05;;;;;;;3.67;1.53;;;;;;;;;;5036618;28;92444;-53
2022/08/03 10:09:33;;;;;;;1.23;0.80;;;;;;;;;;5031677;28;91479;-53
2022/08/03 10:12:08;;;;;;;1.27;1.20;;;;;;;;;;5038061;28;93196;-54
2022/08/03 10:14:37;;;;;;;1.20;0.90;;;;;;;;;;5037580;28;93860;-55
2022/08/03 10:17:06;;;;;;;3.67;1.20;;;;;;;;;;5038153;28;92910;-53
2022/08/03 10:19:35;;;;;;;1.00;1.00;;;;;;;;;;5038264;28;92130;-53
2022/08/03 10:22:04;;;;;;;3.80;1.50;;;;;;;;;;5038279;28;94159;-53
2022/08/03 10:24:34;;;;;;;2.23;1.10;;;;;;;;;;5037817;28;93897;-53
2022/08/03 10:27:03;;;;;;;1.17;0.93;;;;;;;;;;5038081;28;91897;-53
2022/08/03 10:29:33;;;;;;;1.47;1.10;;;;;;;;;;5038316;28;91896;-53
2022/08/03 10:32:01;;;;;;;2.20;1.10;;;;;;;;;;5037337;28;94289;-54
2022/08/03 10:34:32;;;;;;;2.33;0.90;;;;;;;;;;5037848;28;93994;-53
2022/08/03 10:37:02;;;;;;;4.77;1.30;;;;;;;;;;5038153;28;91965;-52
2022/08/03 10:39:30;;;;;;;1.57;1.23;;;;;;;;;;5040466;27;92059;-54
2022/08/03 10:41:58;;;;;;;1.47;1.37;;;;;;;;;;5040389;28;94212;-53
2022/08/03 10:44:31;;;;;;;1.83;1.30;;;;;;;;;;5040751;28;94940;-53
2022/08/03 10:46:59;;;;;;;1.23;1.07;;;;;;;;;;5041422;28;91945;-52
2022/08/03 10:49:28;;;;;;;1.73;1.30;;;;;;;;;;5041204;28;92067;-54
2022/08/03 10:52:04;;;;;;;1.23;0.90;;;;;;;;;;5040700;28;94174;-52
2022/08/03 10:57:45;;;;;;;1.13;1.03;;;;;;;;;;5041506;28;92042;-53
2022/08/03 11:00:16;;;;;;;4.40;1.57;;;;;;;;;;5041664;28;91372;-53
2022/08/03 11:03:03;;;;;;;3.13;1.27;;;;;;;;;;5040905;28;93078;-53
2022/08/03 11:05:32;;;;;;;2.70;1.30;;;;;;;;;;5033915;28;93920;-52
2022/08/03 11:08:21;;;;;;;1.20;1.10;;;;;;;;;;5040864;28;93039;-53
2022/08/03 11:10:49;;;;;;;4.50;1.13;;;;;;;;;;5041090;28;91976;-52
2022/08/03 11:13:18;;;;;;;3.90;1.30;;;;;;;;;;5040919;28;94241;-52
2022/08/03 11:15:47;;;;;;;1.53;1.03;;;;;;;;;;5040114;28;93997;-52
2022/08/03 11:18:15;;;;;;;1.00;1.00;;;;;;;;;;5040515;28;93091;-52
2022/08/03 11:20:44;;;;;;;2.37;1.20;;;;;;;;;;5041143;28;92063;-52
2022/08/03 11:23:14;;;;;;;1.67;1.20;;;;;;;;;;5040760;28;93748;-52
2022/08/03 11:26:01;;;;;;;1.67;1.43;;;;;;;;;;5040875;28;92908;-52
2022/08/03 11:28:32;;;;;;;1.50;1.30;;;;;;;;;;5034422;28;92086;-52
2022/08/03 11:31:15;;;;;;;2.43;1.30;;;;;;;;;;5041242;28;92051;-54
2022/08/03 11:34:04;;;;;;;1.90;1.10;;;;;;;;;;5040344;28;95792;-52
2022/08/03 11:36:33;;;;;;;2.13;1.00;;;;;;;;;;5040659;28;95059;-52
2022/08/03 11:39:13;;;;;;;2.20;1.20;;;;;;;;;;5041206;28;92072;-54
2022/08/03 11:41:44;;;;;;;2.60;1.17;;;;;;;;;;5040621;28;92071;-54
2022/08/03 11:44:16;;;;;;;5.03;1.60;;;;;;;;;;5040713;28;93306;-52
2022/08/03 11:46:44;;;;;;;3.33;1.37;;;;;;;;;;5040690;28;94157;-52
2022/08/03 11:49:12;;;;;;;1.57;1.23;;;;;;;;;;5040764;27;92077;-52
2022/08/03 11:51:41;;;;;;;1.00;0.90;;;;;;;;;;5040470;28;91239;-52
2022/08/03 11:54:10;;;;;;;3.10;0.80;;;;;;;;;;5040221;28;93247;-52
2022/08/03 11:56:45;;;;;;;1.03;0.90;;;;;;;;;;5039459;28;93793;-52
2022/08/03 11:59:13;;;;;;;2.50;1.13;;;;;;;;;;5039878;28;93140;-52
2022/08/03 12:01:49;;;;;;;2.37;1.20;;;;;;;;;;5040382;28;91888;-52
2022/08/03 12:04:18;;;;;;;2.60;1.20;;;;;;;;;;5039995;28;94036;-52
2022/08/03 12:06:59;;;;;;;1.40;1.27;;;;;;;;;;5039801;28;93880;-54
2022/08/03 12:09:27;;;;;;;1.37;0.97;;;;;;;;;;5040467;28;92192;-53
2022/08/03 12:11:55;;;;;;;3.43;1.70;;;;;;;;;;5039956;28;92040;-53
2022/08/03 12:14:28;;;;;;;1.40;1.13;;;;;;;;;;5039907;28;94426;-54
2022/08/03 12:17:18;;;;;;;7.83;1.37;;;;;;;;;;5039694;28;92364;-52
2022/08/03 12:19:47;;;;;;;1.33;1.10;;;;;;;;;;5040690;28;92087;-53
2022/08/03 12:22:15;;;;;;;0.90;0.90;;;;;;;;;;5040171;28;92125;-53
2022/08/03 12:24:44;;;;;;;3.10;1.03;;;;;;;;;;5039584;28;93844;-53
2022/08/03 12:27:23;;;;;;;3.20;0.93;;;;;;;;;;5039591;28;94721;-52
2022/08/03 12:29:52;;;;;;;2.33;1.30;;;;;;;;;;5040211;28;92107;-53
2022/08/03 12:32:27;;;;;;;3.80;0.90;;;;;;;;;;5039884;28;91991;-53
2022/08/03 12:34:58;;;;;;;1.70;1.20;;;;;;;;;;5039061;28;94213;-53
2022/08/03 12:37:27;;;;;;;1.73;0.93;;;;;;;;;;5039011;28;93891;-53
2022/08/03 12:39:58;;;;;;;1.10;1.00;;;;;;;;;;5039708;28;92103;-53
2022/08/03 12:42:32;;;;;;;2.03;1.33;;;;;;;;;;5040056;28;91370;-53
2022/08/03 12:45:17;;;;;;;2.03;0.90;;;;;;;;;;5039641;28;93047;-53
2022/08/03 12:47:53;;;;;;;1.73;1.23;;;;;;;;;;5039371;28;93494;-53
2022/08/03 12:50:25;;;;;;;1.87;1.00;;;;;;;;;;5031241;28;93009;-53
2022/08/03 12:52:54;;;;;;;2.20;1.03;;;;;;;;;;5039312;28;92114;-53
2022/08/03 12:55:22;;;;;;;1.57;0.77;;;;;;;;;;5038841;28;93326;-53
2022/08/03 12:57:50;;;;;;;3.00;1.10;;;;;;;;;;5039402;28;91962;-53
2022/08/03 13:00:19;;;;;;;0.80;0.80;;;;;;;;;;5031512;28;92132;-53
2022/08/03 13:03:04;;;;;;;1.53;0.83;;;;;;;;;;5038554;28;92047;-53
2022/08/03 13:05:53;;;;;;;1.23;1.00;;;;;;;;;;5039122;28;92614;-52
2022/08/03 13:08:21;;;;;;;2.20;1.03;;;;;;;;;;5039666;28;92944;-53
2022/08/03 13:10:50;;;;;;;1.00;0.80;;;;;;;;;;5038886;28;92050;-53
2022/08/03 13:13:19;;;;;;;1.83;1.20;;;;;;;;;;5038731;28;92085;-52
2022/08/03 13:15:48;;;;;;;2.50;0.90;;;;;;;;;;5038606;28;93907;-53
2022/08/03 13:18:17;;;;;;;3.73;0.97;;;;;;;;;;5038914;28;95008;-53
2022/08/03 13:20:46;;;;;;;3.10;1.07;;;;;;;;;;5039666;28;91976;-52
2022/08/03 13:23:14;;;;;;;4.50;1.03;;;;;;;;;;5039494;28;92007;-53
2022/08/03 13:25:49;;;;;;;2.40;0.70;;;;;;;;;;5038219;28;92906;-53
2022/08/03 13:28:23;;;;;;;1.53;0.80;;;;;;;;;;5038702;28;93849;-53
2022/08/03 13:30:53;;;;;;;1.30;0.93;;;;;;;;;;5039260;28;92027;-53
2022/08/03 13:33:23;;;;;;;1.20;0.63;;;;;;;;;;5039368;28;91060;-53
2022/08/03 13:35:51;;;;;;;1.80;0.83;;;;;;;;;;5038652;28;94306;-53
2022/08/03 13:38:19;;;;;;;2.50;0.80;;;;;;;;;;5029776;28;92822;-52
2022/08/03 13:40:54;;;;;;;1.27;0.77;;;;;;;;;;5038865;28;93009;-53
2022/08/03 13:43:23;;;;;;;1.10;1.00;;;;;;;;;;5039015;28;91952;-53
2022/08/03 13:45:51;;;;;;;0.93;0.70;;;;;;;;;;5038960;28;94191;-52
2022/08/03 13:48:26;;;;;;;0.83;0.70;;;;;;;;;;5031311;28;93874;-53
2022/08/03 13:51:05;;;;;;;4.00;1.03;;;;;;;;;;5039259;28;92110;-52
2022/08/03 13:53:49;;;;;;;2.00;0.93;;;;;;;;;;5039273;28;92145;-52
2022/08/03 13:56:18;;;;;;;0.97;0.70;;;;;;;;;;5037861;28;94221;-54
2022/08/03 13:58:46;;;;;;;0.97;0.83;;;;;;;;;;5038869;28;93868;-54
2022/08/03 14:01:15;;;;;;;2.60;0.77;;;;;;;;;;5038094;28;92086;-54
2022/08/03 14:03:45;;;;;;;0.97;0.63;;;;;;;;;;5038883;28;91937;-51
2022/08/03 14:06:13;;;;;;;2.73;1.30;;;;;;;;;;5037872;28;95295;-53
2022/08/03 14:08:41;;;;;;;3.30;0.90;;;;;;;;;;5038489;28;94902;-54
2022/08/03 14:11:10;;;;;;;0.73;0.73;;;;;;;;;;5038780;28;92049;-55
2022/08/03 14:13:38;;;;;;;1.63;0.63;;;;;;;;;;5039655;28;92170;-54
2022/08/03 14:16:06;;;;;;;0.40;0.40;;;;;;;;;;5041455;28;94137;-53
2022/08/03 14:18:37;;;;;;;0.53;0.53;;;;;;;;;;5021130;28;92042;-54
2022/08/03 14:21:09;;;;;;;0.50;0.50;;;;;;;;;;5021786;28;91971;-53
2022/08/03 14:23:38;;;;;;;2.00;1.00;;;;;;;;;;5022189;28;91300;-53
2022/08/03 14:26:06;;;;;;;0.67;0.67;;;;;;;;;;5020856;28;93245;-53
2022/08/03 14:28:35;;;;;;;1.27;1.07;;;;;;;;;;5020790;28;92984;-53
2022/08/03 14:31:03;;;;;;;1.23;0.63;;;;;;;;;;5021172;28;93302;-55
2022/08/03 14:33:35;;;;;;;1.60;0.80;;;;;;;;;;5021497;28;92047;-52
2022/08/03 14:36:04;;;;;;;1.10;0.50;;;;;;;;;;5021318;28;93247;-53
2022/08/03 14:38:34;;;;;;;4.23;0.70;;;;;;;;;;5020960;28;92789;-54
2022/08/03 14:41:02;;;;;;;1.80;1.00;;;;;;;;;;5021339;28;92022;-54
2022/08/03 14:43:30;;;;;;;0.70;0.70;;;;;;;;;;5021640;28;92088;-54
2022/08/03 14:46:01;;;;;;;2.17;0.57;;;;;;;;;;5021242;28;94174;-52
2022/08/03 14:48:29;;;;;;;0.67;0.50;;;;;;;;;;5020955;28;93802;-53
2022/08/03 14:51:18;;;;;;;1.60;0.77;;;;;;;;;;5021501;28;92108;-54
2022/08/03 14:53:48;;;;;;;2.23;1.00;;;;;;;;;;5021650;28;91962;-53
2022/08/03 14:56:16;;;;;;;0.87;0.83;;;;;;;;;;5020027;28;94137;-53
2022/08/03 14:58:44;;;;;;;1.07;0.50;;;;;;;;;;5020716;28;94844;-53
2022/08/03 15:01:13;;;;;;;0.90;0.53;;;;;;;;;;5021520;28;91935;-53
2022/08/03 15:04:01;;;;;;;0.73;0.50;;;;;;;;;;5021206;28;92050;-54
2022/08/03 15:06:29;;;;;;;0.60;0.60;;;;;;;;;;5020987;28;94222;-53
2022/08/03 15:08:59;;;;;;;1.17;0.60;;;;;;;;;;5021175;28;94067;-53
2022/08/03 15:11:47;;;;;;;0.80;0.67;;;;;;;;;;5021076;28;91988;-53
2022/08/03 15:14:16;;;;;;;2.40;0.43;;;;;;;;;;5021144;28;91354;-53
2022/08/03 15:16:49;;;;;;;0.60;0.60;;;;;;;;;;5020397;28;94327;-53
2022/08/03 15:19:17;;;;;;;0.80;0.60;;;;;;;;;;5040747;28;94014;-53
2022/08/03 15:22:06;;;;;;;2.73;0.90;;;;;;;;;;5040492;28;92997;-53